Time;durP1;ratioP1;P1;durP2;ratioP2;P2;SDS_P1;SDS_P2;PMS_P1;PMS_P2;Temp;Humidity;BMP_temperature;BMP_pressure;BME280_temperature;BME280_humidity;BME280_pressure;Samples;Min_cycle;Max_cycle;Signal;HPM_P1;HPM_P2
2023/09/14 00:01:47;;;;;;;17.23;12.60;;;18.50;58.90;;;;;;5090398;27;46831;-80
2023/09/14 00:04:13;;;;;;;18.73;12.27;;;18.50;58.90;;;;;;5108923;27;46358;-79
2023/09/14 00:06:38;;;;;;;17.60;12.57;;;18.50;58.90;;;;;;5110578;27;46523;-78
2023/09/14 00:09:04;;;;;;;21.70;13.50;;;18.50;58.90;;;;;;5108407;27;46429;-79
2023/09/14 00:11:30;;;;;;;19.03;12.53;;;18.60;58.70;;;;;;5108005;27;46410;-79
2023/09/14 00:13:55;;;;;;;18.80;12.30;;;18.60;58.50;;;;;;5107144;27;46473;-79
2023/09/14 00:16:21;;;;;;;17.13;11.83;;;18.60;58.50;;;;;;5108572;27;46365;-81
2023/09/14 00:18:47;;;;;;;19.57;12.23;;;18.70;58.50;;;;;;5110441;27;47639;-81
2023/09/14 00:21:12;;;;;;;19.63;13.13;;;18.60;58.30;;;;;;5109544;27;46227;-78
2023/09/14 00:23:38;;;;;;;25.70;13.27;;;18.60;58.20;;;;;;5108526;27;46191;-78
2023/09/14 00:26:03;;;;;;;21.27;13.80;;;18.60;59.60;;;;;;5111222;27;46382;-80
2023/09/14 00:28:29;;;;;;;21.50;13.40;;;18.60;58.70;;;;;;5110280;27;46588;-80
2023/09/14 00:30:56;;;;;;;27.40;15.20;;;18.60;58.90;;;;;;5107281;27;46520;-81
2023/09/14 00:33:23;;;;;;;18.47;13.60;;;18.60;58.90;;;;;;5115831;27;46481;-80
2023/09/14 00:35:48;;;;;;;20.57;13.83;;;18.60;59.10;;;;;;5092785;27;46477;-81
2023/09/14 00:38:15;;;;;;;21.23;14.23;;;18.60;59.00;;;;;;5113938;27;46256;-78
2023/09/14 00:40:40;;;;;;;20.97;14.33;;;18.70;58.90;;;;;;5093060;27;46477;-79
2023/09/14 00:43:06;;;;;;;30.30;14.10;;;18.70;58.70;;;;;;5108300;27;47690;-79
2023/09/14 00:45:32;;;;;;;22.73;14.20;;;18.70;58.70;;;;;;5108911;27;47067;-79
2023/09/14 00:48:02;;;;;;;21.03;14.00;;;18.70;58.60;;;;;;5109539;27;46526;-79
2023/09/14 00:50:28;;;;;;;17.30;12.53;;;18.70;58.80;;;;;;5106407;27;46606;-79
2023/09/14 00:53:10;;;;;;;23.47;14.00;;;18.70;58.70;;;;;;5107427;27;47536;-79
2023/09/14 00:55:36;;;;;;;20.87;12.13;;;18.70;58.90;;;;;;5113033;27;46647;-78
2023/09/14 00:58:02;;;;;;;21.50;13.70;;;18.70;59.20;;;;;;5112066;27;46308;-80
2023/09/14 01:00:29;;;;;;;20.03;14.10;;;18.60;59.40;;;;;;5112996;27;45865;-79
2023/09/14 01:02:55;;;;;;;21.17;13.67;;;18.60;59.50;;;;;;5095231;27;49247;-79
2023/09/14 01:05:21;;;;;;;23.40;13.87;;;18.70;59.70;;;;;;5109252;27;46596;-80
2023/09/14 01:07:47;;;;;;;29.17;14.87;;;18.60;59.60;;;;;;5111217;27;46358;-79
2023/09/14 01:10:15;;;;;;;22.37;13.60;;;18.60;59.60;;;;;;5115781;27;46413;-78
2023/09/14 01:12:46;;;;;;;19.10;14.10;;;18.60;59.60;;;;;;5113066;27;48194;-78
2023/09/14 01:15:44;;;;;;;20.60;13.17;;;18.50;59.50;;;;;;5111719;27;46737;-80
2023/09/14 01:18:36;;;;;;;21.40;13.70;;;18.50;59.50;;;;;;5100563;27;46500;-79
2023/09/14 01:21:07;;;;;;;20.30;13.90;;;18.50;59.50;;;;;;5114617;27;46457;-79
2023/09/14 01:23:41;;;;;;;24.27;15.00;;;18.40;59.40;;;;;;5112147;27;47394;-80
2023/09/14 01:26:08;;;;;;;26.60;14.90;;;18.40;59.40;;;;;;5111831;27;46552;-79
2023/09/14 01:28:34;;;;;;;24.27;16.37;;;18.30;60.00;;;;;;5097269;27;46413;-80
2023/09/14 01:30:59;;;;;;;30.27;17.20;;;18.20;60.20;;;;;;5115166;27;46451;-81
2023/09/14 01:33:25;;;;;;;24.97;16.30;;;18.20;61.00;;;;;;5117205;27;46520;-79
2023/09/14 01:36:01;;;;;;;28.70;16.43;;;18.20;60.90;;;;;;5096338;27;46555;-79
2023/09/14 01:38:29;;;;;;;28.53;16.60;;;18.20;60.90;;;;;;5113408;27;46458;-78
2023/09/14 01:40:55;;;;;;;26.73;17.57;;;18.40;61.10;;;;;;5107620;27;46385;-80
2023/09/14 01:43:20;;;;;;;31.13;16.60;;;18.30;60.80;;;;;;5113302;27;47247;-78
2023/09/14 01:45:47;;;;;;;25.80;17.13;;;18.30;60.70;;;;;;5097813;27;47291;-78
2023/09/14 01:48:17;;;;;;;27.73;17.17;;;18.30;60.50;;;;;;5108935;27;46821;-79
2023/09/14 01:50:42;;;;;;;22.90;15.67;;;18.30;60.50;;;;;;5102280;27;46712;-81
2023/09/14 01:53:08;;;;;;;29.10;15.10;;;18.40;60.50;;;;;;5114134;27;46430;-81
2023/09/14 01:55:33;;;;;;;22.90;15.60;;;18.50;60.50;;;;;;5110506;27;46501;-79
2023/09/14 01:57:59;;;;;;;27.03;17.03;;;18.40;60.40;;;;;;5110570;27;46543;-78
2023/09/14 02:00:26;;;;;;;26.10;15.00;;;18.50;60.30;;;;;;5112356;27;46412;-79
2023/09/14 02:02:52;;;;;;;26.20;15.47;;;18.50;60.30;;;;;;5111325;27;46512;-79
2023/09/14 02:05:18;;;;;;;24.83;16.27;;;18.50;60.00;;;;;;5090985;27;46949;-85
2023/09/14 02:07:43;;;;;;;31.07;15.50;;;18.50;60.00;;;;;;5108568;27;47050;-80
2023/09/14 02:10:09;;;;;;;23.00;15.03;;;18.50;60.00;;;;;;5109594;27;46390;-80
2023/09/14 02:12:35;;;;;;;24.67;16.23;;;18.50;60.00;;;;;;5112874;27;47335;-81
2023/09/14 02:15:00;;;;;;;26.40;16.63;;;18.50;60.10;;;;;;5109732;27;46437;-79
2023/09/14 02:17:26;;;;;;;25.83;15.33;;;18.50;60.30;;;;;;5100919;27;46858;-82
2023/09/14 02:19:53;;;;;;;23.33;15.70;;;18.50;60.20;;;;;;5117058;27;46621;-80
2023/09/14 02:22:19;;;;;;;23.97;15.20;;;18.50;60.30;;;;;;5101542;27;47955;-78
2023/09/14 02:24:44;;;;;;;22.83;15.60;;;18.60;60.30;;;;;;5091894;27;46274;-80
2023/09/14 02:27:11;;;;;;;21.77;13.90;;;18.60;60.30;;;;;;5095878;27;46570;-79
2023/09/14 02:29:37;;;;;;;28.70;17.13;;;18.60;60.40;;;;;;5115197;27;46473;-79
2023/09/14 02:32:04;;;;;;;28.07;16.90;;;18.60;60.10;;;;;;5090808;27;48134;-81
2023/09/14 02:34:29;;;;;;;25.23;16.10;;;18.60;60.40;;;;;;5110191;27;46523;-78
2023/09/14 02:36:55;;;;;;;29.63;15.60;;;18.60;60.20;;;;;;5113157;27;46691;-80
2023/09/14 02:39:20;;;;;;;27.87;17.40;;;18.60;60.20;;;;;;5114621;27;46481;-79
2023/09/14 02:41:46;;;;;;;22.57;14.13;;;18.60;60.30;;;;;;5116303;27;47276;-81
2023/09/14 02:44:12;;;;;;;26.40;16.50;;;18.60;60.30;;;;;;5115225;27;46782;-81
2023/09/14 02:46:37;;;;;;;22.63;15.70;;;18.60;60.30;;;;;;5107470;27;46729;-80
2023/09/14 02:49:03;;;;;;;29.53;16.70;;;18.60;60.30;;;;;;5110016;27;46977;-81
2023/09/14 02:51:28;;;;;;;28.53;18.87;;;18.60;60.30;;;;;;5107084;27;47039;-81
2023/09/14 02:53:54;;;;;;;23.73;14.90;;;18.60;60.20;;;;;;5107127;27;46776;-80
2023/09/14 02:56:20;;;;;;;23.37;14.97;;;18.60;60.10;;;;;;5109948;27;46844;-79
2023/09/14 02:58:45;;;;;;;22.30;15.40;;;18.60;60.20;;;;;;5095255;27;46760;-79
2023/09/14 03:01:11;;;;;;;27.67;15.53;;;18.60;60.40;;;;;;5111719;27;46509;-80
2023/09/14 03:03:38;;;;;;;25.53;15.97;;;18.60;60.30;;;;;;5111176;27;46907;-77
2023/09/14 03:06:04;;;;;;;24.20;15.07;;;18.60;60.10;;;;;;5107893;27;46560;-80
2023/09/14 03:08:33;;;;;;;26.87;15.67;;;18.60;60.30;;;;;;5091604;27;46464;-79
2023/09/14 03:11:00;;;;;;;24.47;15.47;;;18.60;60.30;;;;;;5110041;27;46492;-79
2023/09/14 03:13:25;;;;;;;25.27;16.37;;;18.60;60.40;;;;;;5091672;27;45985;-79
2023/09/14 03:15:59;;;;;;;22.73;15.73;;;18.40;60.50;;;;;;5108703;27;46529;-81
2023/09/14 03:18:25;;;;;;;28.43;17.00;;;18.40;60.90;;;;;;5099384;27;46470;-79
2023/09/14 03:20:56;;;;;;;24.00;17.30;;;18.40;60.70;;;;;;5112832;27;47130;-82
2023/09/14 03:23:22;;;;;;;27.37;16.90;;;18.40;60.70;;;;;;5096537;27;46463;-81
2023/09/14 03:25:48;;;;;;;23.23;15.17;;;18.40;60.70;;;;;;5099660;27;46655;-81
2023/09/14 03:28:15;;;;;;;24.13;15.83;;;18.40;60.70;;;;;;5109389;27;45933;-79
2023/09/14 03:30:41;;;;;;;29.73;17.50;;;18.40;60.50;;;;;;5097804;27;48449;-81
2023/09/14 03:33:07;;;;;;;30.23;18.50;;;18.40;60.50;;;;;;5106772;27;46861;-78
2023/09/14 03:35:32;;;;;;;30.60;15.47;;;18.40;60.50;;;;;;5106975;27;46432;-79
2023/09/14 03:37:58;;;;;;;32.10;17.80;;;18.40;60.60;;;;;;5107847;27;46413;-79
2023/09/14 03:40:24;;;;;;;27.77;16.80;;;18.40;60.80;;;;;;5109135;27;46552;-80
2023/09/14 03:42:50;;;;;;;35.70;18.40;;;18.40;60.70;;;;;;5106891;27;46719;-80
2023/09/14 03:45:15;;;;;;;30.10;17.50;;;18.30;60.80;;;;;;5089274;27;46506;-81
2023/09/14 03:47:41;;;;;;;31.03;19.00;;;18.30;60.70;;;;;;5108388;27;46505;-79
2023/09/14 03:50:08;;;;;;;30.07;18.17;;;18.20;61.10;;;;;;5087819;27;48591;-79
2023/09/14 03:52:35;;;;;;;32.37;19.07;;;18.10;61.70;;;;;;5107102;27;46740;-79
2023/09/14 03:55:01;;;;;;;31.77;18.43;;;18.00;62.00;;;;;;5103512;27;46438;-79
2023/09/14 03:57:28;;;;;;;43.43;18.87;;;18.00;63.50;;;;;;5101775;27;46872;-79
2023/09/14 03:59:53;;;;;;;35.13;19.80;;;17.90;63.80;;;;;;5105306;27;46710;-79
2023/09/14 04:02:19;;;;;;;28.63;18.83;;;17.80;62.60;;;;;;5105263;27;46515;-79
2023/09/14 04:04:45;;;;;;;31.17;17.80;;;17.80;62.90;;;;;;5104901;27;46714;-80
2023/09/14 04:07:10;;;;;;;39.63;19.53;;;17.70;63.40;;;;;;5104728;27;46517;-79
2023/09/14 04:09:37;;;;;;;34.10;19.67;;;17.70;63.10;;;;;;5102342;27;47091;-79
2023/09/14 04:12:03;;;;;;;32.83;19.10;;;17.70;63.00;;;;;;5090724;27;46949;-81
2023/09/14 04:14:29;;;;;;;30.87;18.90;;;17.70;62.90;;;;;;5090483;27;46420;-80
2023/09/14 04:16:59;;;;;;;32.43;19.50;;;17.80;62.90;;;;;;5102592;27;46741;-80
2023/09/14 04:19:25;;;;;;;29.13;19.27;;;17.70;62.80;;;;;;5107648;27;46963;-80
2023/09/14 04:21:51;;;;;;;33.30;19.50;;;17.70;62.90;;;;;;5105585;27;46742;-80
2023/09/14 04:24:16;;;;;;;29.83;19.37;;;17.70;62.90;;;;;;5076810;27;46502;-80
2023/09/14 04:26:42;;;;;;;31.93;20.50;;;17.70;63.10;;;;;;5103320;27;46430;-81
2023/09/14 04:29:07;;;;;;;30.17;19.17;;;17.60;63.00;;;;;;5108149;27;46430;-80
2023/09/14 04:31:34;;;;;;;27.87;18.13;;;17.60;62.90;;;;;;5110480;27;46438;-81
2023/09/14 04:34:01;;;;;;;28.70;18.97;;;17.70;63.00;;;;;;5092717;27;46773;-81
2023/09/14 04:36:26;;;;;;;30.30;18.80;;;17.70;62.80;;;;;;5057519;27;1134913;-80
2023/09/14 04:38:52;;;;;;;36.30;21.13;;;17.70;63.90;;;;;;5111001;27;46446;-79
2023/09/14 04:41:18;;;;;;;34.90;19.77;;;17.80;62.50;;;;;;5096137;27;46667;-79
2023/09/14 04:43:43;;;;;;;33.33;20.30;;;17.70;62.80;;;;;;5113214;27;46363;-80
2023/09/14 04:46:09;;;;;;;28.13;19.17;;;17.60;62.90;;;;;;5111430;27;46402;-79
2023/09/14 04:48:37;;;;;;;32.40;19.70;;;17.60;63.00;;;;;;5099734;27;48234;-79
2023/09/14 04:51:03;;;;;;;33.70;19.77;;;17.60;63.00;;;;;;5109396;27;46990;-79
2023/09/14 04:53:29;;;;;;;33.97;20.30;;;17.60;63.00;;;;;;5111293;27;47990;-79
2023/09/14 04:55:55;;;;;;;34.17;20.50;;;17.60;63.40;;;;;;5110543;27;46690;-81
2023/09/14 04:58:21;;;;;;;34.70;22.00;;;17.50;63.30;;;;;;5090100;27;49262;-83
2023/09/14 05:00:49;;;;;;;33.37;21.20;;;17.50;63.60;;;;;;5111524;27;46598;-82
2023/09/14 05:03:18;;;;;;;32.50;21.00;;;17.60;63.80;;;;;;5113918;27;46460;-82
2023/09/14 05:05:50;;;;;;;32.03;19.40;;;17.50;63.50;;;;;;5113211;27;46679;-81
2023/09/14 05:08:16;;;;;;;38.83;21.20;;;17.60;63.20;;;;;;5111242;27;46660;-79
2023/09/14 05:10:41;;;;;;;37.03;20.33;;;17.60;62.80;;;;;;5110752;27;46450;-79
2023/09/14 05:13:07;;;;;;;33.57;20.40;;;17.70;62.50;;;;;;5112316;27;47537;-81
2023/09/14 05:15:33;;;;;;;37.10;20.73;;;17.80;62.30;;;;;;5089905;27;46459;-79
2023/09/14 05:17:58;;;;;;;35.73;20.97;;;17.80;62.30;;;;;;5109080;27;46395;-78
2023/09/14 05:20:24;;;;;;;32.47;20.80;;;17.80;63.70;;;;;;5111643;27;46509;-80
2023/09/14 05:22:49;;;;;;;33.67;20.30;;;17.80;62.40;;;;;;5109846;27;46511;-79
2023/09/14 05:25:15;;;;;;;35.80;19.40;;;17.70;62.50;;;;;;5111635;27;46579;-79
2023/09/14 05:27:41;;;;;;;38.87;20.63;;;17.70;62.90;;;;;;5106415;27;46794;-80
2023/09/14 05:30:11;;;;;;;37.97;21.07;;;17.70;62.90;;;;;;5109710;27;46769;-80
2023/09/14 05:32:38;;;;;;;32.77;20.67;;;17.80;62.70;;;;;;5111245;27;46455;-79
2023/09/14 05:35:06;;;;;;;41.97;21.17;;;17.80;62.80;;;;;;5110355;27;46012;-79
2023/09/14 05:37:32;;;;;;;38.53;21.73;;;17.90;62.50;;;;;;5112403;27;47052;-80
2023/09/14 05:39:58;;;;;;;32.80;19.77;;;17.90;62.50;;;;;;5109166;27;46743;-79
2023/09/14 05:42:23;;;;;;;34.87;20.47;;;18.00;62.40;;;;;;5093683;27;45946;-79
2023/09/14 05:44:49;;;;;;;34.23;19.97;;;18.00;62.00;;;;;;5109639;27;46477;-80
2023/09/14 05:47:14;;;;;;;29.53;18.80;;;18.10;61.70;;;;;;5093481;27;48357;-78
2023/09/14 05:49:41;;;;;;;33.20;19.80;;;18.20;61.50;;;;;;5109672;27;46535;-81
2023/09/14 05:52:08;;;;;;;31.60;19.47;;;18.30;61.30;;;;;;5096671;27;46520;-80
2023/09/14 05:54:33;;;;;;;36.20;20.83;;;18.30;61.10;;;;;;5095034;27;46833;-80
2023/09/14 05:56:59;;;;;;;33.80;21.10;;;18.40;61.30;;;;;;5114759;27;46536;-82
2023/09/14 05:59:24;;;;;;;39.40;21.07;;;18.40;61.20;;;;;;5100856;27;46627;-82
2023/09/14 06:01:51;;;;;;;32.37;20.07;;;18.40;61.30;;;;;;5111249;27;47031;-79
2023/09/14 06:04:17;;;;;;;35.60;20.50;;;18.40;61.40;;;;;;5110206;27;46605;-81
2023/09/14 06:06:43;;;;;;;34.60;21.13;;;18.40;61.40;;;;;;5111656;27;46783;-80
2023/09/14 06:09:09;;;;;;;29.27;18.77;;;18.30;61.80;;;;;;5107460;27;46712;-79
2023/09/14 06:11:34;;;;;;;35.87;21.30;;;18.30;62.00;;;;;;5094632;27;46415;-79
2023/09/14 06:14:00;;;;;;;32.53;21.27;;;18.30;62.20;;;;;;5110213;27;46450;-82
2023/09/14 06:16:26;;;;;;;34.27;21.33;;;18.30;61.90;;;;;;5093804;27;48031;-81
2023/09/14 06:18:52;;;;;;;31.50;20.10;;;18.40;61.90;;;;;;5111690;27;46451;-82
2023/09/14 06:21:18;;;;;;;33.80;20.63;;;18.30;61.80;;;;;;5102797;27;46430;-80
2023/09/14 06:23:44;;;;;;;36.63;21.60;;;18.30;61.90;;;;;;5107452;27;47033;-78
2023/09/14 06:26:10;;;;;;;36.30;21.50;;;18.40;61.90;;;;;;5112422;27;46884;-80
2023/09/14 06:28:35;;;;;;;34.50;22.13;;;18.40;61.60;;;;;;5075454;27;46439;-78
2023/09/14 06:31:01;;;;;;;32.17;21.27;;;18.30;61.70;;;;;;5107343;27;46518;-79
2023/09/14 06:33:27;;;;;;;38.30;23.00;;;18.30;61.80;;;;;;5112214;27;46705;-81
2023/09/14 06:35:52;;;;;;;39.53;23.10;;;18.30;62.00;;;;;;5085776;27;47968;-79
2023/09/14 06:38:18;;;;;;;35.80;22.00;;;18.20;61.90;;;;;;5109339;27;46436;-80
2023/09/14 06:40:43;;;;;;;38.43;20.77;;;18.20;61.90;;;;;;5093903;27;46588;-81
2023/09/14 06:43:09;;;;;;;41.10;22.30;;;18.20;61.80;;;;;;5091307;27;46530;-79
2023/09/14 06:45:35;;;;;;;36.87;21.90;;;18.20;61.80;;;;;;5107646;27;46693;-82
2023/09/14 06:48:00;;;;;;;33.63;21.40;;;18.20;61.70;;;;;;5100044;27;46430;-80
2023/09/14 06:50:26;;;;;;;37.90;21.33;;;18.30;62.00;;;;;;5113655;27;46543;-80
2023/09/14 06:52:51;;;;;;;38.40;21.60;;;18.10;61.70;;;;;;5114393;27;46579;-81
2023/09/14 06:55:17;;;;;;;33.97;20.87;;;18.20;61.80;;;;;;5116776;27;47550;-80
2023/09/14 06:57:43;;;;;;;39.80;22.40;;;18.30;61.70;;;;;;5078815;27;47273;-84
2023/09/14 07:00:16;;;;;;;32.03;22.13;;;18.30;61.50;;;;;;5105983;27;46720;-82
2023/09/14 07:02:44;;;;;;;37.10;21.77;;;18.30;61.40;;;;;;5093987;27;46768;-83
2023/09/14 07:05:10;;;;;;;33.20;22.10;;;18.40;61.00;;;;;;5109979;27;47293;-84
2023/09/14 07:07:40;;;;;;;31.40;20.73;;;18.40;61.00;;;;;;5106387;27;46532;-84
2023/09/14 07:10:07;;;;;;;35.33;21.93;;;18.40;61.10;;;;;;5086752;27;46932;-82
2023/09/14 07:12:34;;;;;;;34.27;20.50;;;18.30;61.10;;;;;;5106707;27;46608;-83
2023/09/14 07:14:59;;;;;;;33.77;22.70;;;18.30;61.20;;;;;;5108807;27;46860;-81
2023/09/14 07:17:25;;;;;;;37.90;22.87;;;18.40;61.10;;;;;;5107932;27;47001;-79
2023/09/14 07:19:50;;;;;;;35.43;22.37;;;18.40;60.70;;;;;;5112098;27;46594;-82
2023/09/14 07:22:18;;;;;;;34.57;21.30;;;18.50;60.60;;;;;;5115814;27;46005;-83
2023/09/14 07:24:43;;;;;;;38.13;22.10;;;18.50;60.50;;;;;;5110842;27;46883;-80
2023/09/14 07:27:09;;;;;;;36.87;21.27;;;18.60;60.00;;;;;;5106971;27;46521;-82
2023/09/14 07:29:35;;;;;;;36.00;22.30;;;18.70;59.70;;;;;;5106313;27;46401;-79
2023/09/14 07:32:01;;;;;;;33.27;20.73;;;18.80;59.80;;;;;;5088291;27;47343;-82
2023/09/14 07:34:27;;;;;;;34.27;21.30;;;18.70;59.70;;;;;;5105563;27;48033;-81
2023/09/14 07:36:53;;;;;;;33.00;20.43;;;18.80;59.80;;;;;;5104968;27;46473;-80
2023/09/14 07:39:18;;;;;;;35.73;20.77;;;18.80;59.80;;;;;;5103530;27;46458;-79
2023/09/14 07:41:44;;;;;;;35.80;21.03;;;18.90;59.90;;;;;;5104447;27;46669;-80
2023/09/14 07:44:09;;;;;;;35.63;23.00;;;18.70;59.70;;;;;;5104617;27;46810;-82
2023/09/14 07:46:36;;;;;;;34.93;21.30;;;18.70;59.70;;;;;;5087961;27;46504;-79
2023/09/14 07:49:02;;;;;;;33.60;21.57;;;18.80;59.80;;;;;;5102279;27;46544;-77
2023/09/14 07:51:28;;;;;;;32.93;20.20;;;18.70;59.70;;;;;;5088843;27;46498;-81
2023/09/14 07:53:55;;;;;;;33.60;20.80;;;18.70;59.80;;;;;;5104579;27;46458;-83
2023/09/14 07:56:21;;;;;;;33.30;20.90;;;18.70;59.70;;;;;;5107148;27;46383;-82
2023/09/14 07:58:47;;;;;;;32.90;21.47;;;18.70;59.70;;;;;;5089612;27;46203;-80
2023/09/14 08:01:12;;;;;;;28.50;20.30;;;18.80;59.80;;;;;;5106011;27;46715;-77
2023/09/14 08:03:38;;;;;;;34.47;21.60;;;18.90;59.60;;;;;;5105418;27;46684;-80
2023/09/14 08:06:04;;;;;;;31.63;19.67;;;19.30;58.60;;;;;;5103568;27;46476;-80
2023/09/14 08:08:29;;;;;;;27.70;19.53;;;19.30;57.70;;;;;;5105359;27;46414;-80
2023/09/14 08:10:55;;;;;;;28.17;18.60;;;19.20;58.00;;;;;;5107606;27;46760;-81
2023/09/14 08:13:21;;;;;;;27.07;18.30;;;19.50;57.40;;;;;;5104821;27;46731;-80
2023/09/14 08:15:48;;;;;;;27.13;18.40;;;19.70;56.70;;;;;;5085611;27;46810;-80
2023/09/14 08:18:14;;;;;;;29.80;19.60;;;19.90;56.00;;;;;;5087680;27;45839;-80
2023/09/14 08:20:44;;;;;;;30.30;20.07;;;20.10;55.70;;;;;;5105939;27;46750;-81
2023/09/14 08:23:12;;;;;;;31.23;18.73;;;20.10;55.00;;;;;;5088567;27;48060;-80
2023/09/14 08:25:37;;;;;;;26.60;18.13;;;20.30;54.50;;;;;;5105800;27;46702;-79
2023/09/14 08:28:04;;;;;;;28.10;18.97;;;20.30;54.10;;;;;;5088912;27;46481;-82
2023/09/14 08:30:29;;;;;;;27.63;18.67;;;20.60;53.10;;;;;;5097499;27;46546;-80
2023/09/14 08:32:55;;;;;;;30.80;19.80;;;21.00;50.90;;;;;;5107685;27;46631;-83
2023/09/14 08:35:25;;;;;;;24.00;17.20;;;21.20;49.90;;;;;;5108277;27;46427;-83
2023/09/14 08:37:55;;;;;;;28.93;17.83;;;21.20;48.80;;;;;;5086317;27;46970;-80
2023/09/14 08:40:21;;;;;;;25.73;17.20;;;21.40;46.70;;;;;;5103762;27;47261;-77
2023/09/14 08:42:50;;;;;;;21.23;15.63;;;21.70;44.80;;;;;;5106534;27;47094;-79
2023/09/14 08:45:22;;;;;;;24.20;16.57;;;22.00;43.30;;;;;;5102622;27;46503;-78
2023/09/14 08:47:49;;;;;;;24.70;15.87;;;22.20;41.40;;;;;;5104367;27;46747;-80
2023/09/14 08:50:18;;;;;;;22.73;15.37;;;22.60;40.30;;;;;;5090530;27;47001;-78
2023/09/14 08:52:45;;;;;;;22.60;16.00;;;22.90;38.70;;;;;;5104304;27;46775;-80
2023/09/14 08:55:11;;;;;;;26.93;17.27;;;23.20;37.60;;;;;;5106191;27;46499;-78
2023/09/14 08:57:40;;;;;;;23.23;17.83;;;23.00;37.70;;;;;;5094940;27;46435;-79
2023/09/14 09:00:20;;;;;;;24.77;17.47;;;22.90;37.70;;;;;;5104571;27;46631;-79
2023/09/14 09:02:51;;;;;;;22.63;17.63;;;22.90;37.00;;;;;;5089239;27;48581;-77
2023/09/14 09:05:18;;;;;;;30.83;16.70;;;23.00;36.80;;;;;;5106290;27;46446;-78
2023/09/14 09:07:45;;;;;;;23.90;17.07;;;23.10;36.80;;;;;;5105130;27;46557;-80
2023/09/14 09:10:20;;;;;;;24.60;17.50;;;23.10;36.30;;;;;;5084674;27;46028;-80
2023/09/14 09:12:46;;;;;;;22.10;16.50;;;23.00;35.50;;;;;;5086609;27;49155;-78
2023/09/14 09:15:13;;;;;;;21.77;16.67;;;23.00;35.70;;;;;;5108191;27;46790;-77
2023/09/14 09:17:44;;;;;;;24.03;16.27;;;23.10;35.20;;;;;;5091714;27;46515;-80
2023/09/14 09:20:19;;;;;;;25.77;15.57;;;23.20;34.50;;;;;;5111752;27;46507;-80
2023/09/14 09:22:45;;;;;;;23.03;16.53;;;23.20;33.80;;;;;;5112245;27;47499;-79
2023/09/14 09:25:12;;;;;;;23.23;16.43;;;23.40;33.40;;;;;;5117621;27;47159;-79
2023/09/14 09:27:39;;;;;;;26.70;18.73;;;23.50;32.90;;;;;;5103708;27;46414;-78
2023/09/14 09:30:06;;;;;;;25.13;17.03;;;23.60;32.40;;;;;;5112813;27;46490;-75
2023/09/14 09:32:32;;;;;;;24.40;17.80;;;24.00;31.50;;;;;;5110886;27;46614;-81
2023/09/14 09:35:21;;;;;;;24.60;17.30;;;23.90;31.20;;;;;;5107897;27;46936;-82
2023/09/14 09:37:49;;;;;;;28.43;18.00;;;24.00;30.20;;;;;;5108961;27;46513;-78
2023/09/14 09:40:22;;;;;;;24.93;16.83;;;24.00;30.60;;;;;;5110248;27;46416;-81
2023/09/14 09:42:48;;;;;;;23.47;17.50;;;23.90;30.60;;;;;;5112068;27;46682;-80
2023/09/14 09:45:14;;;;;;;23.30;17.50;;;23.90;31.10;;;;;;5110008;27;46365;-80
2023/09/14 09:47:41;;;;;;;21.97;16.60;;;23.80;30.90;;;;;;5111549;27;46459;-80
2023/09/14 09:50:12;;;;;;;22.60;15.60;;;23.80;30.40;;;;;;5096046;27;46406;-82
2023/09/14 09:52:40;;;;;;;22.07;16.33;;;23.80;30.00;;;;;;5108187;27;47743;-79
2023/09/14 09:55:07;;;;;;;21.83;15.23;;;23.70;30.50;;;;;;5099434;27;46555;-81
2023/09/14 09:57:36;;;;;;;23.77;17.43;;;23.50;30.20;;;;;;5109082;27;46643;-81
2023/09/14 10:00:13;;;;;;;22.10;16.40;;;23.50;30.00;;;;;;5104619;27;46106;-79
2023/09/14 10:02:40;;;;;;;25.10;18.03;;;23.50;29.90;;;;;;5108549;27;46402;-81
2023/09/14 10:05:07;;;;;;;25.90;16.67;;;23.80;29.70;;;;;;5103818;27;46524;-77
2023/09/14 10:07:40;;;;;;;21.70;14.17;;;24.10;29.20;;;;;;5104982;27;46678;-80
2023/09/14 10:10:10;;;;;;;20.07;16.00;;;24.30;28.10;;;;;;5097566;27;46490;-79
2023/09/14 10:12:38;;;;;;;24.10;17.10;;;24.50;27.60;;;;;;5091470;27;48289;-81
2023/09/14 10:15:05;;;;;;;26.70;16.47;;;24.80;26.40;;;;;;5106119;27;46435;-81
2023/09/14 10:17:31;;;;;;;20.10;14.67;;;24.90;25.90;;;;;;5096459;27;46545;-77
2023/09/14 10:20:01;;;;;;;19.10;13.60;;;25.20;26.10;;;;;;5106790;27;47046;-79
2023/09/14 10:22:28;;;;;;;22.80;15.67;;;25.40;24.50;;;;;;5107447;27;46461;-79
2023/09/14 10:24:58;;;;;;;17.93;13.63;;;25.70;23.70;;;;;;5103278;27;45871;-82
2023/09/14 10:27:27;;;;;;;18.87;12.77;;;25.30;23.70;;;;;;5105202;27;47147;-80
2023/09/14 10:29:56;;;;;;;18.23;14.30;;;25.30;23.10;;;;;;5106927;27;46708;-79
2023/09/14 10:32:22;;;;;;;20.67;14.37;;;25.30;23.10;;;;;;5097704;27;47189;-80
2023/09/14 10:34:50;;;;;;;21.80;14.90;;;25.50;22.80;;;;;;5108122;27;46496;-79
2023/09/14 10:37:18;;;;;;;20.03;13.70;;;25.90;22.00;;;;;;5098295;27;46570;-80
2023/09/14 10:39:45;;;;;;;20.50;13.33;;;25.80;21.40;;;;;;5087842;27;46692;-80
2023/09/14 10:42:10;;;;;;;19.37;13.60;;;25.30;22.10;;;;;;5089632;27;48267;-80
2023/09/14 10:44:36;;;;;;;18.23;13.30;;;25.20;22.30;;;;;;5092339;27;46556;-83
2023/09/14 10:47:03;;;;;;;17.70;12.07;;;24.90;22.40;;;;;;5108355;27;45972;-82
2023/09/14 10:49:33;;;;;;;16.80;11.73;;;24.50;22.70;;;;;;5107329;27;46584;-85
2023/09/14 10:52:00;;;;;;;23.43;17.43;;;24.30;23.00;;;;;;5086070;27;47959;-83
2023/09/14 10:54:27;;;;;;;26.27;18.37;;;23.80;23.70;;;;;;5108303;27;47113;-83
2023/09/14 10:57:01;;;;;;;22.07;16.90;;;23.00;24.80;;;;;;5093115;27;46462;-81
2023/09/14 10:59:45;;;;;;;25.00;17.17;;;22.50;26.30;;;;;;5110143;27;46823;-83
2023/09/14 11:02:11;;;;;;;25.93;17.87;;;22.00;28.00;;;;;;5110372;27;46512;-85
2023/09/14 11:05:14;;;;;;;24.20;17.30;;;21.70;28.80;;;;;;5107831;27;47001;-83
2023/09/14 11:07:42;;;;;;;22.40;15.03;;;21.30;30.00;;;;;;5089792;27;46483;-82
2023/09/14 11:10:09;;;;;;;26.67;15.17;;;21.20;31.00;;;;;;5107067;27;46460;-81
2023/09/14 11:12:35;;;;;;;21.17;13.80;;;21.10;32.10;;;;;;5087283;27;48088;-82
2023/09/14 11:15:22;;;;;;;21.10;14.57;;;20.80;33.50;;;;;;5104907;27;46706;-81
2023/09/14 11:17:52;;;;;;;25.67;15.87;;;20.50;34.50;;;;;;5104171;27;46735;-83
2023/09/14 11:20:27;;;;;;;24.17;17.40;;;20.40;35.10;;;;;;5088609;27;46029;-80
2023/09/14 11:22:57;;;;;;;28.10;18.57;;;20.50;34.90;;;;;;5107166;27;47086;-82
2023/09/14 11:25:32;;;;;;;26.77;18.97;;;20.30;35.80;;;;;;5106155;27;46410;-80
2023/09/14 11:27:58;;;;;;;31.70;16.73;;;20.30;36.10;;;;;;5101819;27;46551;-81
2023/09/14 11:30:24;;;;;;;25.30;17.77;;;20.40;36.50;;;;;;5106142;27;46645;-81
2023/09/14 11:32:52;;;;;;;26.57;18.03;;;20.70;35.80;;;;;;5103178;27;46822;-85
2023/09/14 11:35:18;;;;;;;27.37;18.70;;;20.80;35.70;;;;;;5102701;27;46819;-82
2023/09/14 11:37:46;;;;;;;26.67;18.70;;;20.80;34.90;;;;;;5089662;27;46475;-81
2023/09/14 11:40:13;;;;;;;26.47;17.73;;;20.80;35.60;;;;;;5102309;27;46394;-82
2023/09/14 11:43:07;;;;;;;23.57;17.80;;;20.90;34.90;;;;;;5087815;27;47533;-80
2023/09/14 11:45:38;;;;;;;30.63;18.90;;;21.00;35.00;;;;;;5105183;27;46890;-79
2023/09/14 11:48:05;;;;;;;26.13;18.23;;;21.20;35.10;;;;;;5105407;27;46385;-81
2023/09/14 11:50:33;;;;;;;24.93;15.23;;;21.40;34.90;;;;;;5095435;27;46018;-80
2023/09/14 11:52:59;;;;;;;29.87;18.00;;;21.80;33.70;;;;;;5083157;27;48779;-83
2023/09/14 11:55:26;;;;;;;25.93;17.60;;;21.90;33.00;;;;;;5087322;27;47342;-81
2023/09/14 11:57:52;;;;;;;26.77;17.47;;;21.90;33.10;;;;;;5103727;27;46989;-81
2023/09/14 12:00:20;;;;;;;27.73;17.60;;;21.90;32.60;;;;;;5106865;27;46438;-81
2023/09/14 12:02:47;;;;;;;23.60;15.90;;;21.80;32.50;;;;;;5088538;27;48092;-81
2023/09/14 12:05:13;;;;;;;20.97;14.70;;;21.80;32.50;;;;;;5104388;27;46426;-81
2023/09/14 12:07:39;;;;;;;26.40;14.60;;;21.90;31.40;;;;;;5107974;27;46453;-82
2023/09/14 12:10:19;;;;;;;20.80;15.37;;;21.90;31.40;;;;;;5103412;27;46179;-83
2023/09/14 12:12:45;;;;;;;19.33;12.73;;;21.90;31.10;;;;;;5106897;27;46904;-83
2023/09/14 12:15:18;;;;;;;18.90;12.87;;;22.10;30.80;;;;;;5096432;27;46527;-82
2023/09/14 12:17:52;;;;;;;19.70;12.63;;;22.30;30.10;;;;;;5106734;27;46919;-81
2023/09/14 12:20:19;;;;;;;20.43;12.50;;;22.30;29.80;;;;;;5108923;27;46509;-80
2023/09/14 12:22:45;;;;;;;22.93;13.60;;;22.40;29.80;;;;;;5112015;27;47009;-84
2023/09/14 12:25:13;;;;;;;17.17;12.10;;;22.30;29.80;;;;;;5105581;27;46464;-82
2023/09/14 12:27:40;;;;;;;22.13;12.10;;;22.30;29.50;;;;;;5088163;27;47307;-83